Time;durP1;ratioP1;P1;durP2;ratioP2;P2;SDS_P1;SDS_P2;PMS_P1;PMS_P2;Temp;Humidity;BMP_temperature;BMP_pressure;BME280_temperature;BME280_humidity;BME280_pressure;Samples;Min_cycle;Max_cycle;Signal;HPM_P1;HPM_P2
2021/12/09 00:00:32;;;;;;;10.82;9.82;;;;;;;;;;4989415;28;20045;-59
2021/12/09 00:03:05;;;;;;;10.63;9.65;;;;;;;;;;4983221;28;20504;-58
2021/12/09 00:05:34;;;;;;;10.07;9.20;;;;;;;;;;4987570;28;20042;-59
2021/12/09 00:08:01;;;;;;;11.52;10.43;;;;;;;;;;4990205;28;20069;-58
2021/12/09 00:10:28;;;;;;;11.82;10.63;;;;;;;;;;4989397;28;20061;-59
2021/12/09 00:12:55;;;;;;;11.82;10.73;;;;;;;;;;4988470;28;20049;-59
2021/12/09 00:15:22;;;;;;;12.68;11.48;;;;;;;;;;4982905;28;20042;-59
2021/12/09 00:17:49;;;;;;;10.40;9.48;;;;;;;;;;4990125;28;20034;-60
2021/12/09 00:20:18;;;;;;;11.50;10.48;;;;;;;;;;4991154;28;20046;-59
2021/12/09 00:22:46;;;;;;;12.57;11.35;;;;;;;;;;4987025;28;20046;-60
2021/12/09 00:25:14;;;;;;;10.50;9.60;;;;;;;;;;4991707;28;20039;-61
2021/12/09 00:27:42;;;;;;;12.48;11.38;;;;;;;;;;4989126;28;20054;-58
2021/12/09 00:30:10;;;;;;;12.85;11.65;;;;;;;;;;4989874;28;20501;-61
2021/12/09 00:32:38;;;;;;;11.90;10.90;;;;;;;;;;4988811;28;20514;-61
2021/12/09 00:35:06;;;;;;;11.00;10.02;;;;;;;;;;4992140;28;20042;-60
2021/12/09 00:37:40;;;;;;;11.45;10.45;;;;;;;;;;4992130;28;20049;-61
2021/12/09 00:40:08;;;;;;;10.32;9.43;;;;;;;;;;4992936;28;20489;-61
2021/12/09 00:42:35;;;;;;;11.52;10.52;;;;;;;;;;4982742;28;20497;-60
2021/12/09 00:45:03;;;;;;;10.68;9.68;;;;;;;;;;4993035;28;20515;-60
2021/12/09 00:47:30;;;;;;;10.75;9.85;;;;;;;;;;4993082;28;20039;-60
2021/12/09 00:49:58;;;;;;;14.13;11.35;;;;;;;;;;4993006;28;20047;-60
2021/12/09 00:52:26;;;;;;;12.18;11.07;;;;;;;;;;4992229;28;20401;-60
2021/12/09 00:54:57;;;;;;;11.65;10.57;;;;;;;;;;4990830;28;20121;-60
2021/12/09 00:57:24;;;;;;;11.25;10.18;;;;;;;;;;4991082;28;20048;-60
2021/12/09 00:59:51;;;;;;;11.68;10.63;;;;;;;;;;4990547;28;20054;-61
2021/12/09 01:02:18;;;;;;;12.98;11.68;;;;;;;;;;4991276;28;20053;-60
2021/12/09 01:04:46;;;;;;;10.27;9.32;;;;;;;;;;4991062;28;20042;-59
2021/12/09 01:07:14;;;;;;;11.75;10.48;;;;;;;;;;4991181;28;20043;-59
2021/12/09 01:09:41;;;;;;;10.20;9.30;;;;;;;;;;4992160;28;20476;-58
2021/12/09 01:12:08;;;;;;;10.52;9.57;;;;;;;;;;4993124;28;20444;-59
2021/12/09 01:14:37;;;;;;;10.35;9.45;;;;;;;;;;4992896;28;20481;-59
2021/12/09 01:17:08;;;;;;;10.30;9.40;;;;;;;;;;4993000;28;20050;-59
2021/12/09 01:19:36;;;;;;;10.40;9.50;;;;;;;;;;4993013;28;20077;-59
2021/12/09 01:22:04;;;;;;;11.02;10.07;;;;;;;;;;4992569;28;20038;-59
2021/12/09 01:24:31;;;;;;;10.30;9.32;;;;;;;;;;4993205;28;20097;-59
2021/12/09 01:26:59;;;;;;;11.00;10.00;;;;;;;;;;4992727;28;20046;-59
2021/12/09 01:29:38;;;;;;;10.80;9.75;;;;;;;;;;4992955;28;20389;-59
2021/12/09 01:32:08;;;;;;;10.85;9.82;;;;;;;;;;4992748;28;20057;-59
2021/12/09 01:34:36;;;;;;;10.77;9.75;;;;;;;;;;4993182;28;20038;-59
2021/12/09 01:37:04;;;;;;;9.50;8.70;;;;;;;;;;4992486;28;20039;-59
2021/12/09 01:39:31;;;;;;;9.20;8.35;;;;;;;;;;4994769;28;20077;-59
2021/12/09 01:41:59;;;;;;;9.18;8.48;;;;;;;;;;4996666;28;20050;-59
2021/12/09 01:44:26;;;;;;;10.10;9.20;;;;;;;;;;4995976;28;20042;-59
2021/12/09 01:46:55;;;;;;;8.75;7.95;;;;;;;;;;4996578;28;20073;-59
2021/12/09 01:49:22;;;;;;;10.05;9.15;;;;;;;;;;4996254;28;20043;-59
2021/12/09 01:51:49;;;;;;;8.80;8.00;;;;;;;;;;4995833;28;20049;-59
2021/12/09 01:54:16;;;;;;;8.95;8.15;;;;;;;;;;4975877;28;20046;-60
2021/12/09 01:56:44;;;;;;;8.90;8.10;;;;;;;;;;4976750;28;20039;-59
2021/12/09 01:59:11;;;;;;;8.93;8.02;;;;;;;;;;4975508;28;20747;-59
2021/12/09 02:01:38;;;;;;;9.07;8.27;;;;;;;;;;4975785;28;20057;-59
2021/12/09 02:04:09;;;;;;;8.02;7.32;;;;;;;;;;4988413;28;20081;-59
2021/12/09 02:06:42;;;;;;;9.95;8.38;;;;;;;;;;4996144;28;20405;-60
2021/12/09 02:09:11;;;;;;;8.98;8.07;;;;;;;;;;4996062;28;20130;-60
2021/12/09 02:11:40;;;;;;;10.02;9.13;;;;;;;;;;4995344;28;20061;-60
2021/12/09 02:14:07;;;;;;;7.88;7.18;;;;;;;;;;4995934;28;20050;-60
2021/12/09 02:16:35;;;;;;;9.25;8.35;;;;;;;;;;4994707;28;20053;-60
2021/12/09 02:19:03;;;;;;;8.93;8.13;;;;;;;;;;4994985;28;20088;-60
2021/12/09 02:21:32;;;;;;;8.63;7.82;;;;;;;;;;4995432;28;20051;-60
2021/12/09 02:24:06;;;;;;;8.85;7.95;;;;;;;;;;4995506;28;20050;-60
2021/12/09 02:26:39;;;;;;;8.48;7.68;;;;;;;;;;4994657;28;20046;-60
2021/12/09 02:29:08;;;;;;;9.48;8.57;;;;;;;;;;4995133;28;20050;-59
2021/12/09 02:31:36;;;;;;;9.50;8.45;;;;;;;;;;4995052;28;20054;-59
2021/12/09 02:34:04;;;;;;;9.63;8.63;;;;;;;;;;4995428;28;20055;-59
2021/12/09 02:36:36;;;;;;;8.75;7.95;;;;;;;;;;4995392;28;20053;-60
2021/12/09 02:39:07;;;;;;;10.75;9.68;;;;;;;;;;4995792;28;20070;-60
2021/12/09 02:41:36;;;;;;;9.88;8.98;;;;;;;;;;4995288;28;20076;-60
2021/12/09 02:44:06;;;;;;;9.90;9.00;;;;;;;;;;4994890;28;20050;-59
2021/12/09 02:46:36;;;;;;;10.55;9.55;;;;;;;;;;4995225;28;20049;-60
2021/12/09 02:49:08;;;;;;;9.98;9.07;;;;;;;;;;4993853;28;20125;-60
2021/12/09 02:51:36;;;;;;;10.02;9.02;;;;;;;;;;4995344;28;20046;-60
2021/12/09 02:54:06;;;;;;;10.40;9.38;;;;;;;;;;4995047;28;20069;-59
2021/12/09 02:56:33;;;;;;;9.50;8.57;;;;;;;;;;4995269;28;20046;-59
2021/12/09 02:59:00;;;;;;;9.07;8.20;;;;;;;;;;4994907;28;20050;-59
2021/12/09 03:01:33;;;;;;;9.45;8.52;;;;;;;;;;4995256;28;20042;-59
2021/12/09 03:04:02;;;;;;;9.90;8.90;;;;;;;;;;4994963;28;20054;-59
2021/12/09 03:06:33;;;;;;;9.85;8.93;;;;;;;;;;4994698;28;20069;-59
2021/12/09 03:09:03;;;;;;;9.95;8.95;;;;;;;;;;4994970;28;20046;-59
2021/12/09 03:11:31;;;;;;;10.93;9.73;;;;;;;;;;4994379;28;20085;-59
2021/12/09 03:13:59;;;;;;;9.68;8.60;;;;;;;;;;4995023;28;20042;-58
2021/12/09 03:16:26;;;;;;;9.93;8.95;;;;;;;;;;4994312;28;20046;-58
2021/12/09 03:18:56;;;;;;;10.50;9.48;;;;;;;;;;4994937;28;20038;-59
2021/12/09 03:21:30;;;;;;;10.80;9.65;;;;;;;;;;4994481;28;20051;-59
2021/12/09 03:23:57;;;;;;;11.40;10.30;;;;;;;;;;4994559;28;20489;-59
2021/12/09 03:26:31;;;;;;;9.60;8.50;;;;;;;;;;4992027;28;20042;-59
2021/12/09 03:29:04;;;;;;;9.95;8.98;;;;;;;;;;4988491;28;20046;-58
2021/12/09 03:31:32;;;;;;;10.65;9.55;;;;;;;;;;4991146;28;20042;-59
2021/12/09 03:33:59;;;;;;;10.18;9.13;;;;;;;;;;4993746;28;20120;-59
2021/12/09 03:36:28;;;;;;;11.70;10.50;;;;;;;;;;4977161;28;20050;-59
2021/12/09 03:38:57;;;;;;;11.55;10.38;;;;;;;;;;4994143;28;20050;-60
2021/12/09 03:41:24;;;;;;;10.52;9.45;;;;;;;;;;4994100;28;20044;-59
2021/12/09 03:43:52;;;;;;;10.73;9.68;;;;;;;;;;4993862;28;20038;-59
2021/12/09 03:46:19;;;;;;;12.52;11.23;;;;;;;;;;4994075;28;20061;-59
2021/12/09 03:48:46;;;;;;;11.35;10.23;;;;;;;;;;4993601;28;20046;-60
2021/12/09 03:51:13;;;;;;;13.63;12.25;;;;;;;;;;4993951;28;20053;-60
2021/12/09 03:53:40;;;;;;;13.48;12.18;;;;;;;;;;4993575;28;20505;-60
2021/12/09 03:56:07;;;;;;;12.45;11.25;;;;;;;;;;4993910;28;20490;-59
2021/12/09 03:58:34;;;;;;;14.40;13.00;;;;;;;;;;4994070;28;20042;-59
2021/12/09 04:01:02;;;;;;;13.73;12.32;;;;;;;;;;4993269;28;20101;-59
2021/12/09 04:03:29;;;;;;;15.50;13.88;;;;;;;;;;4993900;28;20446;-60
2021/12/09 04:05:56;;;;;;;14.05;12.75;;;;;;;;;;4993457;28;20044;-59
2021/12/09 04:08:23;;;;;;;14.38;12.90;;;;;;;;;;4994025;28;20424;-60
2021/12/09 04:10:50;;;;;;;17.73;15.93;;;;;;;;;;4993104;28;20050;-60
2021/12/09 04:13:18;;;;;;;19.77;17.75;;;;;;;;;;4993384;28;20053;-60
2021/12/09 04:15:45;;;;;;;17.42;15.63;;;;;;;;;;4993302;28;20042;-61
2021/12/09 04:18:13;;;;;;;20.77;18.60;;;;;;;;;;4993748;28;20058;-59
2021/12/09 04:20:40;;;;;;;21.02;18.92;;;;;;;;;;4993412;28;20043;-60
2021/12/09 04:23:08;;;;;;;19.00;17.20;;;;;;;;;;4993244;28;20038;-59
2021/12/09 04:25:35;;;;;;;18.92;17.13;;;;;;;;;;4993628;28;20042;-59
2021/12/09 04:28:02;;;;;;;15.13;13.68;;;;;;;;;;4993085;28;20074;-60
2021/12/09 04:30:30;;;;;;;16.05;14.45;;;;;;;;;;4993585;28;20046;-59
2021/12/09 04:32:58;;;;;;;18.27;16.38;;;;;;;;;;4993346;28;20070;-59
2021/12/09 04:35:26;;;;;;;19.35;17.45;;;;;;;;;;4993782;28;20433;-60
2021/12/09 04:37:56;;;;;;;19.02;17.13;;;;;;;;;;4992799;28;20080;-59
2021/12/09 04:40:23;;;;;;;18.88;17.08;;;;;;;;;;4984384;28;20043;-59
2021/12/09 04:42:50;;;;;;;18.48;16.73;;;;;;;;;;4990557;28;20046;-59
2021/12/09 04:45:17;;;;;;;19.48;17.17;;;;;;;;;;4993469;28;20046;-59
2021/12/09 04:47:44;;;;;;;20.40;18.33;;;;;;;;;;4992452;28;20039;-59
2021/12/09 04:50:11;;;;;;;19.23;17.33;;;;;;;;;;4992869;28;20046;-59
2021/12/09 04:52:39;;;;;;;21.00;18.80;;;;;;;;;;4993081;28;20377;-60
2021/12/09 04:55:08;;;;;;;21.98;19.88;;;;;;;;;;4993138;28;20038;-59
2021/12/09 04:57:35;;;;;;;19.58;17.17;;;;;;;;;;4993326;28;20053;-60
2021/12/09 05:00:06;;;;;;;19.20;17.27;;;;;;;;;;4992851;28;20038;-60
2021/12/09 05:02:55;;;;;;;16.10;14.50;;;;;;;;;;4992524;28;20046;-60
2021/12/09 05:05:20;;;;;;;21.73;19.63;;;;;;;;;;4992918;28;20039;-60
2021/12/09 05:07:48;;;;;;;17.15;15.45;;;;;;;;;;4992923;28;20046;-60
2021/12/09 05:10:15;;;;;;;17.50;15.70;;;;;;;;;;4992867;28;20497;-60
2021/12/09 05:12:42;;;;;;;17.05;15.38;;;;;;;;;;4996296;28;20397;-60
2021/12/09 05:15:10;;;;;;;18.42;16.52;;;;;;;;;;4996518;28;20046;-60
2021/12/09 05:17:37;;;;;;;16.92;15.23;;;;;;;;;;4995948;28;20055;-60
2021/12/09 05:20:05;;;;;;;23.20;20.92;;;;;;;;;;4996707;28;20045;-60
2021/12/09 05:22:32;;;;;;;21.60;19.60;;;;;;;;;;4996446;28;20097;-60
2021/12/09 05:24:59;;;;;;;18.25;16.42;;;;;;;;;;4996843;28;20042;-62
2021/12/09 05:27:26;;;;;;;18.42;16.50;;;;;;;;;;4996289;28;20057;-60
2021/12/09 05:30:04;;;;;;;16.38;14.63;;;;;;;;;;4996924;28;20038;-60
2021/12/09 05:32:31;;;;;;;18.45;16.48;;;;;;;;;;4988229;28;20050;-60
2021/12/09 05:34:58;;;;;;;19.33;17.30;;;;;;;;;;4996045;28;20046;-60
2021/12/09 05:37:26;;;;;;;19.98;17.77;;;;;;;;;;4995904;28;20047;-61
2021/12/09 05:39:55;;;;;;;18.35;16.42;;;;;;;;;;4996473;28;20050;-61
2021/12/09 05:42:24;;;;;;;12.90;11.60;;;;;;;;;;4996206;28;20054;-61
2021/12/09 05:44:51;;;;;;;13.82;12.20;;;;;;;;;;4996342;28;20490;-60
2021/12/09 05:47:18;;;;;;;13.27;11.85;;;;;;;;;;4996272;28;20042;-61
2021/12/09 05:49:47;;;;;;;12.55;11.25;;;;;;;;;;4995959;28;20042;-60
2021/12/09 05:52:15;;;;;;;12.88;11.57;;;;;;;;;;4995972;28;20532;-60
2021/12/09 05:54:42;;;;;;;11.93;10.65;;;;;;;;;;4995801;28;20057;-60
2021/12/09 05:57:09;;;;;;;12.60;11.30;;;;;;;;;;4996304;28;20050;-61
2021/12/09 05:59:40;;;;;;;11.52;10.30;;;;;;;;;;4996223;28;20049;-60
2021/12/09 06:02:13;;;;;;;12.60;11.30;;;;;;;;;;4996684;28;20493;-61
2021/12/09 06:04:41;;;;;;;11.43;10.23;;;;;;;;;;4996367;28;20058;-61
2021/12/09 06:07:08;;;;;;;11.82;10.35;;;;;;;;;;4995905;28;20042;-60
2021/12/09 06:09:36;;;;;;;11.57;10.43;;;;;;;;;;4995654;28;20046;-61
2021/12/09 06:12:05;;;;;;;11.18;10.02;;;;;;;;;;4995906;28;20057;-60
2021/12/09 06:14:32;;;;;;;13.15;11.73;;;;;;;;;;4996155;28;20086;-60
2021/12/09 06:17:00;;;;;;;12.02;10.82;;;;;;;;;;4995803;28;20038;-60
2021/12/09 06:19:26;;;;;;;12.48;11.18;;;;;;;;;;4995370;28;20490;-58
2021/12/09 06:21:53;;;;;;;12.95;11.52;;;;;;;;;;4994765;28;20042;-60
2021/12/09 06:24:21;;;;;;;12.68;11.38;;;;;;;;;;4993671;28;20038;-59
2021/12/09 06:26:48;;;;;;;12.05;10.88;;;;;;;;;;4993541;28;20045;-58
2021/12/09 06:29:15;;;;;;;11.93;10.75;;;;;;;;;;4983818;28;20383;-60
2021/12/09 06:31:42;;;;;;;10.88;9.80;;;;;;;;;;4989501;28;20054;-61
2021/12/09 06:34:12;;;;;;;12.30;11.02;;;;;;;;;;4992066;28;20046;-59
2021/12/09 06:36:43;;;;;;;10.98;9.55;;;;;;;;;;4991218;28;20377;-59
2021/12/09 06:39:12;;;;;;;13.50;12.10;;;;;;;;;;4992747;28;20050;-59
2021/12/09 06:41:40;;;;;;;12.98;11.68;;;;;;;;;;4992165;28;20043;-61
2021/12/09 06:44:06;;;;;;;11.63;10.13;;;;;;;;;;4989501;28;20045;-61
2021/12/09 06:46:33;;;;;;;12.27;11.07;;;;;;;;;;4988627;28;20049;-59
2021/12/09 06:49:01;;;;;;;12.85;11.65;;;;;;;;;;4985060;28;20039;-60
2021/12/09 06:51:27;;;;;;;14.05;12.57;;;;;;;;;;4981246;28;20082;-62
2021/12/09 06:53:56;;;;;;;12.50;11.30;;;;;;;;;;4990309;28;20410;-63
2021/12/09 06:56:24;;;;;;;15.38;13.88;;;;;;;;;;4991111;28;20118;-59
2021/12/09 06:58:51;;;;;;;13.02;11.73;;;;;;;;;;4981796;28;20117;-59
2021/12/09 07:01:18;;;;;;;13.43;12.02;;;;;;;;;;4990564;28;20198;-58
2021/12/09 07:03:45;;;;;;;14.73;11.38;;;;;;;;;;4989976;28;20038;-57
2021/12/09 07:06:12;;;;;;;14.88;13.27;;;;;;;;;;4987111;28;20051;-57
2021/12/09 07:08:49;;;;;;;14.48;12.88;;;;;;;;;;4989854;28;20061;-58
2021/12/09 07:11:20;;;;;;;16.67;14.95;;;;;;;;;;4988691;28;20476;-58
2021/12/09 07:13:48;;;;;;;18.75;14.93;;;;;;;;;;4989945;28;20137;-57
2021/12/09 07:16:15;;;;;;;24.17;15.68;;;;;;;;;;4984655;28;20043;-55
2021/12/09 07:18:42;;;;;;;15.30;13.38;;;;;;;;;;4989675;28;20058;-57
2021/12/09 07:21:10;;;;;;;15.93;14.15;;;;;;;;;;4988216;28;20050;-59
2021/12/09 07:23:37;;;;;;;15.30;13.70;;;;;;;;;;4985659;28;20042;-56
2021/12/09 07:26:04;;;;;;;78.65;19.77;;;;;;;;;;4989288;28;20034;-59
2021/12/09 07:28:31;;;;;;;14.43;12.93;;;;;;;;;;4987942;28;20046;-56
2021/12/09 07:30:59;;;;;;;15.07;13.43;;;;;;;;;;4990142;28;20038;-59
2021/12/09 07:33:26;;;;;;;17.33;14.68;;;;;;;;;;4991166;28;20053;-57
2021/12/09 07:35:53;;;;;;;12.93;11.68;;;;;;;;;;4985941;28;20073;-56
2021/12/09 07:38:20;;;;;;;19.92;17.27;;;;;;;;;;4985976;28;20054;-57
2021/12/09 07:40:47;;;;;;;20.02;17.52;;;;;;;;;;4993480;28;20460;-58
2021/12/09 07:43:14;;;;;;;14.40;12.55;;;;;;;;;;4992906;28;20047;-58
2021/12/09 07:45:41;;;;;;;13.75;12.27;;;;;;;;;;4993528;28;20046;-56
2021/12/09 07:48:08;;;;;;;15.88;11.43;;;;;;;;;;4993793;28;20051;-56
2021/12/09 07:50:35;;;;;;;16.15;14.13;;;;;;;;;;4993936;28;20456;-56
2021/12/09 07:53:03;;;;;;;18.73;16.52;;;;;;;;;;4993334;28;20069;-56
2021/12/09 07:55:30;;;;;;;14.60;13.10;;;;;;;;;;4993775;28;20054;-59
2021/12/09 07:57:57;;;;;;;11.80;10.57;;;;;;;;;;4993838;28;20050;-57
2021/12/09 08:00:29;;;;;;;10.93;9.93;;;;;;;;;;4993166;28;20043;-57
2021/12/09 08:02:58;;;;;;;10.77;9.70;;;;;;;;;;4993489;28;20042;-56
2021/12/09 08:05:26;;;;;;;11.15;9.98;;;;;;;;;;4993400;28;20039;-57
2021/12/09 08:07:53;;;;;;;10.85;9.75;;;;;;;;;;4993136;28;20413;-57
2021/12/09 08:10:22;;;;;;;13.23;11.93;;;;;;;;;;4992914;28;20054;-57
2021/12/09 08:12:50;;;;;;;12.98;11.68;;;;;;;;;;4993335;28;20080;-57
2021/12/09 08:15:28;;;;;;;14.35;11.73;;;;;;;;;;4993009;28;20046;-57
2021/12/09 08:18:02;;;;;;;11.38;9.40;;;;;;;;;;4993343;28;20058;-57
2021/12/09 08:20:31;;;;;;;10.53;8.70;;;;;;;;;;4993136;28;20038;-56
2021/12/09 08:22:58;;;;;;;9.70;8.73;;;;;;;;;;4993493;28;20057;-56
2021/12/09 08:25:25;;;;;;;9.20;8.30;;;;;;;;;;4993436;28;20042;-56
2021/12/09 08:27:52;;;;;;;9.88;8.98;;;;;;;;;;4993096;28;20061;-57
2021/12/09 08:30:21;;;;;;;11.43;8.98;;;;;;;;;;4993574;28;20038;-57
2021/12/09 08:33:09;;;;;;;9.95;8.95;;;;;;;;;;4993239;28;20046;-57
2021/12/09 08:35:37;;;;;;;10.43;9.43;;;;;;;;;;4993376;28;20042;-57
2021/12/09 08:38:05;;;;;;;9.57;8.52;;;;;;;;;;4993191;28;20045;-57
2021/12/09 08:40:33;;;;;;;11.02;9.77;;;;;;;;;;4993486;28;20046;-57
2021/12/09 08:43:00;;;;;;;10.00;9.10;;;;;;;;;;4993075;28;20050;-56
2021/12/09 08:45:28;;;;;;;8.95;8.05;;;;;;;;;;4994346;28;20088;-57
2021/12/09 08:47:56;;;;;;;8.27;7.47;;;;;;;;;;4996771;28;20038;-57
2021/12/09 08:50:25;;;;;;;9.00;7.82;;;;;;;;;;4997487;28;20054;-57
2021/12/09 08:52:53;;;;;;;13.88;12.57;;;;;;;;;;4997480;28;20060;-57
2021/12/09 08:55:21;;;;;;;9.77;8.88;;;;;;;;;;4997153;28;20089;-56
2021/12/09 08:57:49;;;;;;;10.40;9.30;;;;;;;;;;4997137;28;20057;-57
2021/12/09 09:00:18;;;;;;;10.20;9.00;;;;;;;;;;4996776;28;20046;-57
2021/12/09 09:02:46;;;;;;;9.88;8.50;;;;;;;;;;4997278;28;20039;-57
2021/12/09 09:05:14;;;;;;;9.63;8.73;;;;;;;;;;4996690;28;20042;-57
2021/12/09 09:07:42;;;;;;;8.18;7.22;;;;;;;;;;4997335;28;20404;-57
2021/12/09 09:10:11;;;;;;;10.00;8.48;;;;;;;;;;4996614;28;20054;-57
2021/12/09 09:12:38;;;;;;;11.32;9.48;;;;;;;;;;4996779;28;20053;-57
2021/12/09 09:15:07;;;;;;;13.27;11.63;;;;;;;;;;4996513;28;20510;-57
2021/12/09 09:17:35;;;;;;;10.10;8.48;;;;;;;;;;4993760;28;20046;-57
2021/12/09 09:20:04;;;;;;;10.65;8.65;;;;;;;;;;4996918;28;20050;-57
2021/12/09 09:22:31;;;;;;;14.90;8.30;;;;;;;;;;4996500;28;20050;-58
2021/12/09 09:24:59;;;;;;;9.35;8.27;;;;;;;;;;4996830;28;20035;-57
2021/12/09 09:27:26;;;;;;;8.50;7.35;;;;;;;;;;4996222;28;20409;-57
2021/12/09 09:29:53;;;;;;;7.80;6.97;;;;;;;;;;4996763;28;20120;-57
2021/12/09 09:32:19;;;;;;;11.60;7.45;;;;;;;;;;4996005;28;20092;-57
2021/12/09 09:34:46;;;;;;;8.85;7.95;;;;;;;;;;4996512;28;20381;-57
2021/12/09 09:37:13;;;;;;;12.80;7.70;;;;;;;;;;4996105;28;20050;-57
2021/12/09 09:39:43;;;;;;;10.40;8.77;;;;;;;;;;4996631;28;20093;-57
2021/12/09 09:44:47;;;;;;;9.85;7.32;;;;;;;;;;4996466;28;20046;-57
2021/12/09 09:47:16;;;;;;;6.43;5.78;;;;;;;;;;4996565;28;20050;-56
2021/12/09 09:49:43;;;;;;;8.48;6.40;;;;;;;;;;4996099;28;20046;-58
2021/12/09 09:52:11;;;;;;;6.88;6.18;;;;;;;;;;4996018;28;20496;-53
2021/12/09 09:54:39;;;;;;;8.32;7.15;;;;;;;;;;4995835;28;20510;-58
2021/12/09 09:57:10;;;;;;;5.90;5.30;;;;;;;;;;4995635;28;20053;-58
2021/12/09 09:59:40;;;;;;;7.57;5.88;;;;;;;;;;4978798;28;20191;-58
2021/12/09 10:02:08;;;;;;;6.72;5.95;;;;;;;;;;4996283;28;20054;-59
2021/12/09 10:04:48;;;;;;;6.70;4.72;;;;;;;;;;4995611;28;20049;-59
2021/12/09 10:07:18;;;;;;;6.15;5.57;;;;;;;;;;4996385;28;20038;-58
2021/12/09 10:09:45;;;;;;;6.10;5.50;;;;;;;;;;4995706;28;20042;-58
2021/12/09 10:12:12;;;;;;;6.18;5.60;;;;;;;;;;4995907;28;20053;-59
2021/12/09 10:14:40;;;;;;;5.45;4.95;;;;;;;;;;4995427;28;20042;-59
2021/12/09 10:17:12;;;;;;;5.43;4.93;;;;;;;;;;4995588;28;20053;-59
2021/12/09 10:19:49;;;;;;;5.47;4.97;;;;;;;;;;4995843;28;20448;-58
2021/12/09 10:22:21;;;;;;;6.63;5.93;;;;;;;;;;4995451;28;20046;-59
2021/12/09 10:24:52;;;;;;;7.70;6.20;;;;;;;;;;4995810;28;20043;-59
2021/12/09 10:27:25;;;;;;;12.68;8.43;;;;;;;;;;4995366;28;20057;-59
2021/12/09 10:29:57;;;;;;;10.32;8.32;;;;;;;;;;4995542;28;20050;-58
2021/12/09 10:32:29;;;;;;;7.32;6.60;;;;;;;;;;4994990;28;20046;-58
2021/12/09 10:35:06;;;;;;;6.93;6.32;;;;;;;;;;4995524;28;20069;-57
2021/12/09 10:37:35;;;;;;;6.28;5.43;;;;;;;;;;4994942;28;20057;-58
2021/12/09 10:40:16;;;;;;;5.78;5.15;;;;;;;;;;4995305;28;20038;-59
2021/12/09 10:42:48;;;;;;;7.72;6.40;;;;;;;;;;4994855;28;20481;-57
2021/12/09 10:45:21;;;;;;;5.82;5.22;;;;;;;;;;4995271;28;20042;-56
2021/12/09 10:48:26;;;;;;;5.03;4.63;;;;;;;;;;4995405;28;20100;-56
2021/12/09 10:55:53;;;;;;;5.22;4.72;;;;;;;;;;4995205;28;20057;-59
2021/12/09 10:58:23;;;;;;;6.50;5.90;;;;;;;;;;4994821;28;20048;-58
2021/12/09 11:00:55;;;;;;;5.82;5.32;;;;;;;;;;4995320;28;20433;-59
2021/12/09 11:03:28;;;;;;;6.68;5.97;;;;;;;;;;4994737;28;20050;-59
2021/12/09 11:05:57;;;;;;;6.30;5.45;;;;;;;;;;4994824;28;20062;-58
2021/12/09 11:08:32;;;;;;;5.60;5.05;;;;;;;;;;4994286;28;20046;-58
2021/12/09 11:11:06;;;;;;;5.68;5.18;;;;;;;;;;4993989;28;20050;-56
2021/12/09 11:13:40;;;;;;;4.63;4.18;;;;;;;;;;4994863;28;20266;-59
2021/12/09 11:16:07;;;;;;;5.15;4.63;;;;;;;;;;4994356;28;20452;-54
2021/12/09 11:18:44;;;;;;;4.40;4.00;;;;;;;;;;4994914;28;20088;-58
2021/12/09 11:21:23;;;;;;;4.05;3.67;;;;;;;;;;4994265;28;20393;-58
2021/12/09 11:24:00;;;;;;;4.32;3.92;;;;;;;;;;4994652;28;20053;-58
2021/12/09 11:26:37;;;;;;;4.53;4.13;;;;;;;;;;4994387;28;20049;-58
2021/12/09 11:29:27;;;;;;;4.25;3.63;;;;;;;;;;4994695;28;20050;-58
2021/12/09 11:32:10;;;;;;;4.18;3.78;;;;;;;;;;4994144;28;20061;-59
2021/12/09 11:35:34;;;;;;;3.88;3.47;;;;;;;;;;4994579;28;20045;-58
2021/12/09 11:38:44;;;;;;;4.53;4.13;;;;;;;;;;4988474;28;20047;-58
2021/12/09 11:43:10;;;;;;;5.63;4.60;;;;;;;;;;4993806;28;20045;-58
2021/12/09 11:45:40;;;;;;;4.72;4.07;;;;;;;;;;4981172;28;20053;-56
2021/12/09 11:48:09;;;;;;;3.97;3.67;;;;;;;;;;4993873;28;20058;-57
2021/12/09 11:50:45;;;;;;;3.92;3.63;;;;;;;;;;4994090;28;20190;-57
2021/12/09 11:53:15;;;;;;;4.40;4.00;;;;;;;;;;4993780;28;20054;-58
2021/12/09 11:55:48;;;;;;;7.88;6.68;;;;;;;;;;4993862;28;20049;-58
2021/12/09 11:59:17;;;;;;;5.30;4.80;;;;;;;;;;4993551;28;20046;-58
2021/12/09 12:07:30;;;;;;;5.18;4.68;;;;;;;;;;4978114;28;20035;-54
2021/12/09 12:13:08;;;;;;;4.30;3.90;;;;;;;;;;4992769;28;20050;-53
2021/12/09 12:24:02;;;;;;;6.20;5.60;;;;;;;;;;4992651;28;20563;-52
2021/12/09 12:40:27;;;;;;;;;;;;;;;;;;4990886;28;20492;-56
2021/12/09 12:45:49;;;;;;;7.28;6.57;;;;;;;;;;4991206;28;20456;-57
2021/12/09 12:51:15;;;;;;;7.50;6.00;;;;;;;;;;4991170;28;20046;-55
2021/12/09 12:53:44;;;;;;;19.43;7.43;;;;;;;;;;4976909;28;20046;-57
2021/12/09 12:56:20;;;;;;;13.48;7.53;;;;;;;;;;4978377;28;20301;-55
2021/12/09 12:59:07;;;;;;;9.23;6.40;;;;;;;;;;4977922;28;20047;-58
2021/12/09 13:01:39;;;;;;;7.15;6.45;;;;;;;;;;4976542;28;20098;-52
2021/12/09 13:07:27;;;;;;;7.30;6.60;;;;;;;;;;4988400;28;20064;-58
2021/12/09 13:10:23;;;;;;;6.45;5.90;;;;;;;;;;4999002;28;20054;-57
2021/12/09 13:13:02;;;;;;;6.47;5.88;;;;;;;;;;4995421;28;20050;-58
2021/12/09 13:15:43;;;;;;;7.47;6.78;;;;;;;;;;4996403;28;20065;-60
2021/12/09 13:19:04;;;;;;;10.88;8.90;;;;;;;;;;5000680;28;20045;-57
2021/12/09 13:21:58;;;;;;;8.45;6.70;;;;;;;;;;4992072;28;20042;-58
2021/12/09 13:24:55;;;;;;;7.85;7.07;;;;;;;;;;4994611;28;20497;-59
2021/12/09 13:27:55;;;;;;;8.02;7.32;;;;;;;;;;4991247;28;20050;-57
2021/12/09 13:36:37;;;;;;;10.73;8.52;;;;;;;;;;4993974;28;20043;-58
2021/12/09 13:48:05;;;;;;;9.50;7.53;;;;;;;;;;4996935;28;20458;-60
2021/12/09 13:55:31;;;;;;;8.55;7.68;;;;;;;;;;5003127;28;20046;-57
2021/12/09 13:58:08;;;;;;;10.15;7.95;;;;;;;;;;4990652;28;20050;-58
2021/12/09 14:00:38;;;;;;;8.38;7.57;;;;;;;;;;4979542;28;20400;-56
2021/12/09 14:03:11;;;;;;;11.02;8.10;;;;;;;;;;5003232;28;20042;-55
2021/12/09 14:05:52;;;;;;;9.52;7.93;;;;;;;;;;5003735;28;20063;-57
2021/12/09 14:08:46;;;;;;;9.32;8.43;;;;;;;;;;4997722;28;20054;-57
2021/12/09 14:11:30;;;;;;;10.05;8.98;;;;;;;;;;4985526;28;20496;-57
2021/12/09 14:14:08;;;;;;;12.02;10.82;;;;;;;;;;5007297;28;20492;-56
2021/12/09 14:16:50;;;;;;;10.52;9.02;;;;;;;;;;4997700;28;20047;-58
2021/12/09 14:21:58;;;;;;;9.98;8.98;;;;;;;;;;4997993;28;20054;-59
2021/12/09 14:24:28;;;;;;;9.93;8.57;;;;;;;;;;5008228;28;20038;-59
2021/12/09 14:27:00;;;;;;;10.30;9.13;;;;;;;;;;4993858;28;20047;-52
2021/12/09 14:29:29;;;;;;;9.38;8.48;;;;;;;;;;4989859;28;20453;-57
2021/12/09 14:31:58;;;;;;;13.15;9.88;;;;;;;;;;4990399;28;20501;-54
2021/12/09 14:34:27;;;;;;;11.13;10.02;;;;;;;;;;4998779;28;20068;-56
2021/12/09 14:37:00;;;;;;;11.02;9.85;;;;;;;;;;5003493;28;20058;-55
2021/12/09 14:39:27;;;;;;;10.10;9.10;;;;;;;;;;4993168;28;20054;-56
2021/12/09 14:42:10;;;;;;;11.90;9.77;;;;;;;;;;4995407;28;20070;-55
2021/12/09 14:44:51;;;;;;;10.68;9.57;;;;;;;;;;5002529;28;20449;-56
2021/12/09 14:47:18;;;;;;;11.82;10.60;;;;;;;;;;5001895;28;20053;-53
2021/12/09 14:49:49;;;;;;;12.23;10.45;;;;;;;;;;4995447;28;20404;-57
2021/12/09 14:52:45;;;;;;;12.70;9.48;;;;;;;;;;4996201;28;20054;-57
2021/12/09 14:55:15;;;;;;;13.82;10.73;;;;;;;;;;4985540;28;20383;-58
2021/12/09 14:57:59;;;;;;;11.20;10.15;;;;;;;;;;5000716;28;20082;-57
2021/12/09 15:00:36;;;;;;;10.18;9.18;;;;;;;;;;4991631;28;20490;-58
2021/12/09 15:03:05;;;;;;;11.18;10.18;;;;;;;;;;4995723;28;20050;-59
2021/12/09 15:05:50;;;;;;;10.27;9.27;;;;;;;;;;4998107;28;20050;-58
2021/12/09 15:08:21;;;;;;;11.13;9.98;;;;;;;;;;4994412;28;20043;-55
2021/12/09 15:10:52;;;;;;;13.02;10.43;;;;;;;;;;4994524;28;20066;-56
2021/12/09 15:13:23;;;;;;;12.93;11.52;;;;;;;;;;4994138;28;20469;-54
2021/12/09 15:16:04;;;;;;;12.95;11.40;;;;;;;;;;4994435;28;20129;-56
2021/12/09 15:18:32;;;;;;;13.20;10.43;;;;;;;;;;4988569;28;20047;-57
2021/12/09 15:21:08;;;;;;;13.23;11.40;;;;;;;;;;4988788;28;20505;-54
2021/12/09 15:23:45;;;;;;;15.95;14.25;;;;;;;;;;4968679;28;20050;-50
2021/12/09 15:26:27;;;;;;;12.10;10.68;;;;;;;;;;4986442;28;20051;-53
2021/12/09 15:29:08;;;;;;;9.23;8.27;;;;;;;;;;4991185;28;20065;-52
2021/12/09 15:31:40;;;;;;;7.80;7.05;;;;;;;;;;4990663;28;20053;-52
2021/12/09 15:34:24;;;;;;;7.30;6.60;;;;;;;;;;4991113;28;20050;-56
2021/12/09 15:36:58;;;;;;;9.57;8.52;;;;;;;;;;4987291;28;20490;-58
2021/12/09 15:39:31;;;;;;;10.70;9.38;;;;;;;;;;4991397;28;20056;-54
2021/12/09 15:42:08;;;;;;;9.05;8.10;;;;;;;;;;4989994;28;20041;-52
2021/12/09 15:44:40;;;;;;;8.85;7.95;;;;;;;;;;4987763;28;20397;-57
2021/12/09 15:47:15;;;;;;;9.98;7.35;;;;;;;;;;4984730;28;20089;-56
2021/12/09 15:49:51;;;;;;;9.15;7.15;;;;;;;;;;4975618;28;20470;-55
2021/12/09 15:52:33;;;;;;;7.05;6.40;;;;;;;;;;4982384;28;20046;-51
2021/12/09 15:55:11;;;;;;;7.97;6.75;;;;;;;;;;4981104;28;20051;-52
2021/12/09 15:57:41;;;;;;;7.20;6.32;;;;;;;;;;4987908;28;20367;-57
2021/12/09 16:00:12;;;;;;;6.55;5.70;;;;;;;;;;4989451;28;20494;-52
2021/12/09 16:02:40;;;;;;;7.45;6.75;;;;;;;;;;4986454;28;20038;-57
2021/12/09 16:05:08;;;;;;;6.38;5.78;;;;;;;;;;4979122;28;20038;-55